EWG61G EGAC-EGNS
Flight info
| Callsign | EWG61G |
|---|---|
| Flight time | 0h 16m |
| Altitude | 7000 |
| Route | DUFFY DCT RINGA L10 IOM |
| Aircraft | A320/M-SDE3FGHIRWY/LB1 |
Departure
| Time | 2026-04-20 20:26 |
|---|---|
| Airport | George Best Belfast City Airport (EGAC) |
Arrival
| Time | 2026-04-20 20:42 |
|---|---|
| Airport | Isle of Man Airport (EGNS) |
| Time | Latitude | Longitude | Altitude | Speed | Heading |
|---|---|---|---|---|---|
| 2026-04-20 20:05 | 54.61471 | -5.87195 | 24 ft | 0 kts | 157° |
| 2026-04-20 20:14 | 54.61472 | -5.87196 | 24 ft | 2 kts | 157° |
| 2026-04-20 20:14 | 54.61487 | -5.87207 | 21 ft | 2 kts | 157° |
| 2026-04-20 20:15 | 54.61503 | -5.87218 | 22 ft | 2 kts | 157° |
| 2026-04-20 20:15 | 54.61519 | -5.87226 | 22 ft | 2 kts | 186° |
| 2026-04-20 20:15 | 54.61529 | -5.87225 | 23 ft | 0 kts | 216° |
| 2026-04-20 20:15 | 54.61529 | -5.87226 | 23 ft | 0 kts | 216° |
| 2026-04-20 20:18 | 54.61522 | -5.87235 | 24 ft | 1 kts | 216° |
| 2026-04-20 20:18 | 54.61515 | -5.87244 | 23 ft | 1 kts | 216° |
| 2026-04-20 20:19 | 54.61511 | -5.87249 | 23 ft | 0 kts | 216° |
| 2026-04-20 20:19 | 54.61508 | -5.87252 | 22 ft | 2 kts | 216° |
| 2026-04-20 20:19 | 54.61472 | -5.87297 | 22 ft | 8 kts | 216° |
| 2026-04-20 20:19 | 54.61427 | -5.87350 | 21 ft | 7 kts | 215° |
| 2026-04-20 20:20 | 54.61397 | -5.87411 | 21 ft | 6 kts | 234° |
| 2026-04-20 20:20 | 54.61371 | -5.87461 | 21 ft | 6 kts | 218° |
| 2026-04-20 20:20 | 54.61342 | -5.87498 | 21 ft | 5 kts | 217° |
| 2026-04-20 20:20 | 54.61317 | -5.87527 | 21 ft | 4 kts | 213° |
| 2026-04-20 20:21 | 54.61300 | -5.87547 | 21 ft | 3 kts | 213° |
| 2026-04-20 20:22 | 54.61264 | -5.87589 | 21 ft | 11 kts | 214° |
| 2026-04-20 20:22 | 54.61240 | -5.87618 | 21 ft | 0 kts | 215° |
| 2026-04-20 20:22 | 54.61238 | -5.87620 | 21 ft | 3 kts | 215° |
| 2026-04-20 20:23 | 54.61180 | -5.87689 | 21 ft | 13 kts | 215° |
| 2026-04-20 20:23 | 54.61160 | -5.87713 | 21 ft | 0 kts | 214° |
| 2026-04-20 20:23 | 54.61158 | -5.87715 | 21 ft | 3 kts | 214° |
| 2026-04-20 20:23 | 54.61112 | -5.87770 | 21 ft | 9 kts | 216° |
| 2026-04-20 20:24 | 54.61089 | -5.87811 | 21 ft | 0 kts | 237° |
| 2026-04-20 20:24 | 54.61085 | -5.87880 | 21 ft | 13 kts | 279° |
| 2026-04-20 20:24 | 54.61144 | -5.88014 | 21 ft | 13 kts | 340° |
| 2026-04-20 20:25 | 54.61208 | -5.87971 | 21 ft | 10 kts | 33° |
| 2026-04-20 20:25 | 54.61272 | -5.87894 | 20 ft | 19 kts | 34° |
| 2026-04-20 20:25 | 54.61584 | -5.87521 | 20 ft | 93 kts | 35° |
| 2026-04-20 20:25 | 54.62289 | -5.86682 | 93 ft | 145 kts | 34° |
| 2026-04-20 20:26 | 54.63097 | -5.85705 | 798 ft | 140 kts | 35° |
| 2026-04-20 20:26 | 54.63891 | -5.84668 | 1318 ft | 152 kts | 40° |
| 2026-04-20 20:26 | 54.64507 | -5.83065 | 1669 ft | 175 kts | 79° |
| 2026-04-20 20:26 | 54.64336 | -5.80889 | 1997 ft | 198 kts | 118° |
| 2026-04-20 20:27 | 54.63280 | -5.79225 | 2340 ft | 222 kts | 161° |
| 2026-04-20 20:27 | 54.61679 | -5.79132 | 2820 ft | 245 kts | 192° |
| 2026-04-20 20:27 | 54.59988 | -5.80005 | 3551 ft | 259 kts | 201° |
| 2026-04-20 20:27 | 54.58299 | -5.81176 | 4530 ft | 264 kts | 203° |
| 2026-04-20 20:28 | 54.56598 | -5.82428 | 5521 ft | 268 kts | 204° |
| 2026-04-20 20:28 | 54.54857 | -5.83680 | 6299 ft | 275 kts | 200° |
| 2026-04-20 20:28 | 54.52979 | -5.84234 | 6566 ft | 276 kts | 177° |
| 2026-04-20 20:28 | 54.51126 | -5.83422 | 6654 ft | 277 kts | 153° |
| 2026-04-20 20:29 | 54.49618 | -5.81395 | 6663 ft | 277 kts | 130° |
| 2026-04-20 20:29 | 54.48523 | -5.78721 | 6665 ft | 277 kts | 124° |
| 2026-04-20 20:29 | 54.47440 | -5.75977 | 6665 ft | 277 kts | 124° |
| 2026-04-20 20:29 | 54.46350 | -5.73241 | 6663 ft | 277 kts | 124° |
| 2026-04-20 20:30 | 54.45258 | -5.70516 | 6663 ft | 277 kts | 124° |
| 2026-04-20 20:30 | 54.44163 | -5.67796 | 6664 ft | 277 kts | 125° |
| 2026-04-20 20:30 | 54.43064 | -5.65073 | 6669 ft | 277 kts | 125° |
| 2026-04-20 20:30 | 54.41966 | -5.62356 | 6664 ft | 277 kts | 125° |
| 2026-04-20 20:31 | 54.40868 | -5.59639 | 6663 ft | 277 kts | 125° |
| 2026-04-20 20:31 | 54.39771 | -5.56925 | 6663 ft | 277 kts | 125° |
| 2026-04-20 20:31 | 54.38672 | -5.54206 | 6667 ft | 277 kts | 125° |
| 2026-04-20 20:31 | 54.37575 | -5.51493 | 6661 ft | 277 kts | 125° |
| 2026-04-20 20:32 | 54.36477 | -5.48782 | 6661 ft | 277 kts | 125° |
| 2026-04-20 20:32 | 54.35379 | -5.46073 | 6664 ft | 277 kts | 125° |
| 2026-04-20 20:32 | 54.34277 | -5.43357 | 6667 ft | 277 kts | 125° |
| 2026-04-20 20:32 | 54.33175 | -5.40650 | 6664 ft | 277 kts | 125° |
| 2026-04-20 20:33 | 54.32074 | -5.37945 | 6668 ft | 277 kts | 125° |
| 2026-04-20 20:33 | 54.30971 | -5.35240 | 6671 ft | 278 kts | 125° |
| 2026-04-20 20:33 | 54.29844 | -5.32480 | 7011 ft | 283 kts | 125° |
| 2026-04-20 20:33 | 54.28723 | -5.29737 | 7012 ft | 279 kts | 125° |
| 2026-04-20 20:34 | 54.27610 | -5.27018 | 7011 ft | 278 kts | 125° |
| 2026-04-20 20:34 | 54.26499 | -5.24306 | 7011 ft | 278 kts | 125° |
| 2026-04-20 20:34 | 54.25389 | -5.21595 | 7013 ft | 278 kts | 125° |
| 2026-04-20 20:34 | 54.24276 | -5.18881 | 7012 ft | 278 kts | 125° |
| 2026-04-20 20:35 | 54.23166 | -5.16178 | 7014 ft | 278 kts | 125° |
| 2026-04-20 20:35 | 54.22052 | -5.13465 | 6979 ft | 278 kts | 125° |
| 2026-04-20 20:35 | 54.20900 | -5.10880 | 6864 ft | 278 kts | 130° |
| 2026-04-20 20:35 | 54.19633 | -5.08381 | 6674 ft | 278 kts | 131° |
| 2026-04-20 20:36 | 54.18356 | -5.05946 | 6165 ft | 270 kts | 132° |
| 2026-04-20 20:36 | 54.17095 | -5.03576 | 5619 ft | 263 kts | 133° |
| 2026-04-20 20:36 | 54.15871 | -5.01287 | 5017 ft | 259 kts | 133° |
| 2026-04-20 20:36 | 54.14663 | -4.99027 | 4414 ft | 256 kts | 133° |
| 2026-04-20 20:37 | 54.13471 | -4.96796 | 3813 ft | 253 kts | 133° |
| 2026-04-20 20:37 | 54.12285 | -4.94571 | 3199 ft | 250 kts | 133° |
| 2026-04-20 20:37 | 54.11131 | -4.92406 | 2758 ft | 241 kts | 133° |
| 2026-04-20 20:37 | 54.10054 | -4.90383 | 2680 ft | 219 kts | 132° |
| 2026-04-20 20:38 | 54.09097 | -4.88583 | 2694 ft | 196 kts | 132° |
| 2026-04-20 20:38 | 54.08227 | -4.86946 | 2695 ft | 179 kts | 133° |
| 2026-04-20 20:38 | 54.07417 | -4.85404 | 2687 ft | 172 kts | 128° |
| 2026-04-20 20:38 | 54.06859 | -4.83623 | 2625 ft | 170 kts | 107° |
| 2026-04-20 20:39 | 54.06601 | -4.81668 | 2489 ft | 169 kts | 105° |
| 2026-04-20 20:39 | 54.06500 | -4.79685 | 2237 ft | 169 kts | 71° |
| 2026-04-20 20:39 | 54.07002 | -4.77879 | 1981 ft | 170 kts | 69° |
| 2026-04-20 20:39 | 54.07168 | -4.75898 | 1743 ft | 168 kts | 83° |
| 2026-04-20 20:40 | 54.07317 | -4.73990 | 1482 ft | 159 kts | 82° |
| 2026-04-20 20:40 | 54.07350 | -4.72173 | 1281 ft | 148 kts | 94° |
| 2026-04-20 20:40 | 54.07313 | -4.70463 | 1022 ft | 142 kts | 85° |
| 2026-04-20 20:40 | 54.07511 | -4.68843 | 778 ft | 138 kts | 76° |
| 2026-04-20 20:41 | 54.07710 | -4.67239 | 558 ft | 138 kts | 78° |
| 2026-04-20 20:41 | 54.07917 | -4.65650 | 356 ft | 137 kts | 77° |
| 2026-04-20 20:41 | 54.08117 | -4.64066 | 153 ft | 136 kts | 77° |
| 2026-04-20 20:41 | 54.08309 | -4.62513 | 39 ft | 126 kts | 76° |
| 2026-04-20 20:42 | 54.08433 | -4.61504 | 25 ft | 28 kts | 77° |
| 2026-04-20 20:42 | 54.08513 | -4.61444 | 24 ft | 12 kts | 329° |
| 2026-04-20 20:42 | 54.08537 | -4.61551 | 30 ft | 9 kts | 278° |
| 2026-04-20 20:42 | 54.08545 | -4.61698 | 28 ft | 14 kts | 275° |
| 2026-04-20 20:43 | 54.08553 | -4.61850 | 31 ft | 11 kts | 271° |
| 2026-04-20 20:43 | 54.08542 | -4.61987 | 34 ft | 14 kts | 258° |
| 2026-04-20 20:43 | 54.08516 | -4.62189 | 37 ft | 21 kts | 257° |
| 2026-04-20 20:43 | 54.08481 | -4.62467 | 41 ft | 27 kts | 259° |
| 2026-04-20 20:44 | 54.08442 | -4.62772 | 39 ft | 21 kts | 257° |
| 2026-04-20 20:44 | 54.08422 | -4.62957 | 38 ft | 8 kts | 281° |
| 2026-04-20 20:44 | 54.08513 | -4.63012 | 39 ft | 23 kts | 349° |
| 2026-04-20 20:44 | 54.08617 | -4.63114 | 40 ft | 16 kts | 314° |
| 2026-04-20 20:45 | 54.08662 | -4.63180 | 40 ft | 9 kts | 338° |
| 2026-04-20 20:45 | 54.08684 | -4.63168 | 41 ft | 0 kts | 38° |
| 2026-04-20 20:45 | 54.08687 | -4.63162 | 39 ft | 0 kts | 46° |
| 2026-04-20 20:45 | 54.08693 | -4.63153 | 40 ft | 0 kts | 43° |